Time;durP1;ratioP1;P1;durP2;ratioP2;P2;SDS_P1;SDS_P2;PMS_P1;PMS_P2;Temp;Humidity;BMP_temperature;BMP_pressure;BME280_temperature;BME280_humidity;BME280_pressure;Samples;Min_cycle;Max_cycle;Signal;HPM_P1;HPM_P2
2021/07/07 00:02:55;;;;;;;10.08;9.08;;;;;;;23.37;54.92;98718.51;2249874;79;20900;-80
2021/07/07 00:05:56;;;;;;;10.13;9.20;;;;;;;23.32;54.82;98718.70;2249821;79;20908;-81
2021/07/07 00:08:57;;;;;;;10.03;9.03;;;;;;;23.38;54.82;98723.77;2249848;79;20936;-80
2021/07/07 00:11:58;;;;;;;10.25;8.43;;;;;;;23.39;54.41;98721.97;2249644;79;20991;-81
2021/07/07 00:14:59;;;;;;;9.15;8.30;;;;;;;23.28;54.55;98719.77;2249891;79;20912;-80
2021/07/07 00:18:02;;;;;;;10.70;8.55;;;;;;;22.96;54.44;98718.88;2249397;79;20955;-81
2021/07/07 00:21:02;;;;;;;9.53;8.68;;;;;;;22.72;55.35;98716.23;2279798;77;20962;-80
2021/07/07 00:24:03;;;;;;;9.30;8.50;;;;;;;22.58;55.70;98717.23;2281927;78;20867;-81
2021/07/07 00:27:04;;;;;;;10.65;9.60;;;;;;;22.59;55.79;98719.43;2282121;77;20933;-80
2021/07/07 00:30:05;;;;;;;9.83;8.88;;;;;;;22.41;55.84;98719.64;2281994;78;20938;-81
2021/07/07 00:33:06;;;;;;;9.75;8.75;;;;;;;22.37;56.60;98722.88;2282024;77;20890;-79
2021/07/07 00:36:06;;;;;;;9.70;8.70;;;;;;;22.48;55.92;98715.81;2282127;78;20903;-80
2021/07/07 00:39:07;;;;;;;9.80;8.75;;;;;;;22.40;56.37;98716.11;2282000;77;20954;-80
2021/07/07 00:42:08;;;;;;;9.90;9.05;;;;;;;22.49;56.73;98721.08;2275008;78;21001;-80
2021/07/07 00:45:10;;;;;;;9.33;8.53;;;;;;;22.62;56.52;98708.67;2249821;79;20935;-80
2021/07/07 00:48:10;;;;;;;10.38;9.20;;;;;;;22.83;56.05;98708.72;2249522;79;21287;-80
2021/07/07 00:51:11;;;;;;;13.20;9.00;;;;;;;22.78;55.71;98708.00;2249449;79;20899;-80
2021/07/07 00:54:12;;;;;;;10.40;9.30;;;;;;;22.65;56.16;98712.54;2258634;78;20903;-80
2021/07/07 00:57:13;;;;;;;14.07;9.38;;;;;;;22.74;55.94;98708.19;2282075;77;20910;-80
2021/07/07 01:00:14;;;;;;;15.50;10.18;;;;;;;22.79;55.85;98703.55;2281854;78;20930;-79
2021/07/07 01:03:15;;;;;;;17.98;10.93;;;;;;;22.81;55.47;98703.92;2281910;78;20973;-79
2021/07/07 01:06:16;;;;;;;9.08;8.18;;;;;;;22.79;55.78;98705.75;2281765;78;20887;-78
2021/07/07 01:09:17;;;;;;;10.00;9.00;;;;;;;22.51;55.83;98702.41;2281957;77;20954;-79
2021/07/07 01:15:21;;;;;;;9.50;8.70;;;;;;;22.43;55.61;98703.16;2229507;78;20982;-79
2021/07/07 01:18:21;;;;;;;10.45;9.55;;;;;;;22.37;56.25;98708.71;2281885;77;20922;-79
2021/07/07 01:21:22;;;;;;;9.63;8.73;;;;;;;22.45;55.67;98705.30;2250478;77;21304;-79
2021/07/07 01:24:23;;;;;;;11.35;9.38;;;;;;;22.13;55.80;98703.39;2249871;79;20905;-79
2021/07/07 01:27:25;;;;;;;10.70;9.80;;;;;;;22.14;56.63;98697.61;2249702;79;20897;-79
2021/07/07 01:30:26;;;;;;;10.58;9.68;;;;;;;22.24;56.61;98697.20;2249718;79;20961;-79
2021/07/07 01:33:27;;;;;;;11.35;10.30;;;;;;;22.43;56.57;98699.17;2249921;79;20897;-78
2021/07/07 01:36:28;;;;;;;11.00;9.45;;;;;;;22.27;56.26;98692.23;2249708;79;20908;-79
2021/07/07 01:39:29;;;;;;;11.03;9.88;;;;;;;22.37;56.54;98694.09;2249801;79;20937;-79
2021/07/07 01:42:30;;;;;;;31.27;9.83;;;;;;;22.21;56.59;98690.67;2249846;79;20955;-79
2021/07/07 01:45:31;;;;;;;10.25;9.25;;;;;;;22.14;56.47;98699.81;2249938;79;20893;-78
2021/07/07 01:48:32;;;;;;;10.65;9.70;;;;;;;22.15;56.79;98700.21;2249846;79;20992;-78
2021/07/07 01:51:35;;;;;;;18.92;10.70;;;;;;;22.28;56.12;98695.77;2249927;79;20900;-79
2021/07/07 01:54:36;;;;;;;11.30;10.20;;;;;;;22.15;56.19;98701.55;2249809;79;20896;-79
2021/07/07 01:57:46;;;;;;;21.45;11.03;;;;;;;22.10;56.71;98698.19;2250244;79;20909;-80
2021/07/07 02:00:47;;;;;;;15.18;10.13;;;;;;;22.19;56.85;98694.31;2249881;79;20972;-79
2021/07/07 02:03:48;;;;;;;13.03;10.85;;;;;;;22.32;56.75;98691.60;2249954;79;21316;-79
2021/07/07 02:06:49;;;;;;;24.67;11.28;;;;;;;22.24;56.17;98695.88;2249927;79;20951;-78
2021/07/07 02:09:50;;;;;;;16.35;11.08;;;;;;;22.22;56.65;98691.09;2249741;79;20892;-79
2021/07/07 02:12:51;;;;;;;12.20;9.45;;;;;;;22.34;56.84;98691.55;2249897;78;20951;-80
2021/07/07 02:15:51;;;;;;;37.28;12.55;;;;;;;22.48;56.26;98695.41;2249653;79;20928;-78
2021/07/07 02:18:52;;;;;;;22.87;10.75;;;;;;;22.51;56.36;98696.63;2249898;77;20977;-80
2021/07/07 02:21:53;;;;;;;17.25;10.65;;;;;;;22.50;55.83;98691.36;2250114;79;20931;-81
2021/07/07 02:24:54;;;;;;;11.78;9.50;;;;;;;22.36;55.67;98704.32;2249574;79;20901;-80
2021/07/07 02:27:55;;;;;;;14.73;10.48;;;;;;;22.19;55.64;98696.52;2250042;79;20957;-80
2021/07/07 02:30:56;;;;;;;12.03;9.68;;;;;;;22.12;55.91;98700.33;2249886;79;20937;-81
2021/07/07 02:33:57;;;;;;;11.28;10.13;;;;;;;22.07;55.95;98694.78;2249987;79;20920;-80
2021/07/07 02:36:58;;;;;;;10.95;9.90;;;;;;;21.93;56.13;98696.12;2249871;79;20892;-80
2021/07/07 02:39:59;;;;;;;12.78;10.30;;;;;;;21.97;56.20;98696.00;2249986;79;20915;-79
2021/07/07 02:43:00;;;;;;;15.72;10.82;;;;;;;22.01;56.26;98698.95;2249719;79;20967;-81
2021/07/07 02:46:01;;;;;;;11.18;10.08;;;;;;;21.98;56.30;98698.60;2250038;79;20900;-81
2021/07/07 02:49:02;;;;;;;10.98;9.88;;;;;;;22.29;56.16;98697.50;2249912;79;20913;-81
2021/07/07 02:52:03;;;;;;;11.08;10.08;;;;;;;22.58;55.52;98697.75;2250187;79;20897;-81
2021/07/07 02:55:04;;;;;;;14.10;11.20;;;;;;;22.76;55.00;98706.33;2250114;79;20900;-82
2021/07/07 02:58:05;;;;;;;14.00;11.45;;;;;;;22.83;54.53;98710.05;2250112;79;20873;-84
2021/07/07 03:01:06;;;;;;;11.85;10.15;;;;;;;22.70;54.14;98708.77;2249889;79;21151;-79
2021/07/07 03:04:07;;;;;;;11.70;10.50;;;;;;;22.36;54.37;98712.30;2249912;79;20963;-80
2021/07/07 03:07:08;;;;;;;13.70;10.63;;;;;;;22.07;54.71;98721.35;2249837;79;20992;-79
2021/07/07 03:10:09;;;;;;;12.23;11.10;;;;;;;21.76;55.37;98724.21;2249926;79;20907;-79
2021/07/07 03:13:10;;;;;;;12.60;11.33;;;;;;;21.56;55.98;98717.77;2249851;79;20979;-80
2021/07/07 03:16:10;;;;;;;13.48;11.75;;;;;;;21.44;56.41;98724.83;2249910;79;20897;-80
2021/07/07 03:19:11;;;;;;;14.55;12.07;;;;;;;21.32;56.77;98722.59;2252304;77;20900;-79
2021/07/07 03:22:12;;;;;;;15.38;13.38;;;;;;;21.23;57.28;98727.74;2282070;78;21366;-79
2021/07/07 03:25:14;;;;;;;13.70;12.25;;;;;;;21.18;57.48;98735.41;2282004;78;20986;-79
2021/07/07 03:28:15;;;;;;;15.58;13.75;;;;;;;21.14;57.73;98729.34;2281930;78;20891;-79
2021/07/07 03:31:16;;;;;;;60.05;15.58;;;;;;;21.12;57.98;98736.95;2282277;78;21264;-79
2021/07/07 03:34:17;;;;;;;21.87;12.35;;;;;;;21.13;58.21;98741.33;2282001;78;20946;-78
2021/07/07 03:37:18;;;;;;;14.65;12.68;;;;;;;21.15;58.36;98738.17;2282009;78;20914;-78
2021/07/07 03:40:19;;;;;;;15.55;12.47;;;;;;;21.16;58.26;98742.56;2281990;78;21002;-78
2021/07/07 03:43:20;;;;;;;23.98;12.35;;;;;;;21.18;58.36;98740.73;2281718;78;20978;-78
2021/07/07 03:46:21;;;;;;;44.00;14.98;;;;;;;21.17;58.42;98744.30;2281873;78;21241;-81
2021/07/07 03:49:22;;;;;;;15.70;12.23;;;;;;;21.16;58.62;98739.91;2282103;78;21079;-83
2021/07/07 03:52:23;;;;;;;17.20;12.37;;;;;;;21.26;58.59;98748.88;2281872;78;21258;-82
2021/07/07 03:55:25;;;;;;;18.85;12.13;;;;;;;21.31;58.40;98743.42;2281947;78;20962;-79
2021/07/07 03:58:26;;;;;;;63.17;15.05;;;;;;;21.30;58.48;98749.65;2282023;78;20895;-79
2021/07/07 04:01:27;;;;;;;22.60;13.15;;;;;;;21.30;58.83;98741.68;2281818;78;20934;-79
2021/07/07 04:04:28;;;;;;;20.65;12.58;;;;;;;21.36;58.85;98753.88;2282288;78;20905;-79
2021/07/07 04:07:29;;;;;;;15.28;11.60;;;;;;;21.37;59.03;98755.16;2282023;78;20940;-79
2021/07/07 04:10:30;;;;;;;17.65;13.70;;;;;;;21.42;59.26;98762.98;2281512;78;21349;-79
2021/07/07 04:13:31;;;;;;;44.33;14.70;;;;;;;21.53;59.27;98757.72;2281891;78;21017;-81
2021/07/07 04:16:32;;;;;;;62.50;17.50;;;;;;;21.54;59.53;98767.42;2282117;78;20949;-80
2021/07/07 04:19:33;;;;;;;17.40;13.40;;;;;;;21.81;59.88;98768.76;2282150;78;21069;-79
2021/07/07 04:22:37;;;;;;;24.15;13.35;;;;;;;22.10;59.56;98772.61;2282024;78;21001;-79
2021/07/07 04:25:38;;;;;;;17.15;12.68;;;;;;;22.32;59.14;98774.03;2281850;78;21177;-78
2021/07/07 04:28:39;;;;;;;20.32;12.63;;;;;;;22.65;59.19;98777.25;2281771;78;21274;-81
2021/07/07 04:31:40;;;;;;;15.60;13.53;;;;;;;22.91;58.88;98768.77;2281697;78;20941;-79
2021/07/07 04:34:41;;;;;;;15.00;13.55;;;;;;;23.19;58.53;98773.39;2281453;78;21311;-78
2021/07/07 04:37:42;;;;;;;15.30;13.32;;;;;;;23.47;57.83;98771.38;2282126;78;20976;-79
2021/07/07 04:40:43;;;;;;;14.55;12.18;;;;;;;23.74;57.36;98768.04;2281787;78;20977;-79
2021/07/07 04:43:44;;;;;;;14.00;11.45;;;;;;;24.00;56.83;98770.91;2281539;78;21021;-78
2021/07/07 04:46:45;;;;;;;15.98;13.45;;;;;;;24.09;56.31;98769.64;2281439;78;21340;-79
2021/07/07 04:49:48;;;;;;;17.00;14.30;;;;;;;24.30;55.97;98771.42;2281612;78;20958;-80
2021/07/07 04:52:48;;;;;;;19.70;13.55;;;;;;;24.49;55.13;98779.92;2281107;78;21349;-80
2021/07/07 04:55:50;;;;;;;17.52;14.15;;;;;;;24.60;55.14;98780.30;2281382;78;21267;-81
2021/07/07 04:58:50;;;;;;;25.68;13.58;;;;;;;24.78;54.84;98781.64;2280755;78;20907;-80
2021/07/07 05:01:51;;;;;;;19.65;14.00;;;;;;;24.94;54.43;98779.59;2280656;78;20978;-77
2021/07/07 05:04:54;;;;;;;24.25;14.28;;;;;;;25.17;54.36;98776.75;2280963;78;21258;-78
2021/07/07 05:07:55;;;;;;;17.20;14.90;;;;;;;25.50;53.82;98774.23;2280987;78;20962;-77
2021/07/07 05:10:56;;;;;;;15.60;13.70;;;;;;;25.81;53.32;98766.89;2280987;78;20918;-79
2021/07/07 05:13:57;;;;;;;20.17;13.95;;;;;;;26.05;52.56;98773.29;2265927;78;21030;-79
2021/07/07 05:16:58;;;;;;;19.65;14.05;;;;;;;26.20;52.31;98776.50;2275729;78;20953;-78
2021/07/07 05:19:59;;;;;;;15.53;14.03;;;;;;;26.34;51.87;98776.19;2282767;77;21625;-78
2021/07/07 05:23:06;;;;;;;91.82;78.25;;;;;;;26.52;51.64;98769.45;2291206;78;20889;-79
2021/07/07 05:26:03;;;;;;;56.00;48.03;;;;;;;26.52;50.71;98765.44;2289660;77;20924;-78
2021/07/07 05:29:04;;;;;;;60.50;43.30;;;;;;;26.60;51.01;98767.23;2289290;77;20947;-79
2021/07/07 05:32:06;;;;;;;26.57;20.60;;;;;;;26.78;50.51;98765.36;2290471;78;21368;-81
2021/07/07 05:35:07;;;;;;;34.25;27.35;;;;;;;26.90;50.19;98770.06;2290465;78;21301;-79
2021/07/07 05:38:09;;;;;;;35.35;20.52;;;;;;;26.95;50.23;98774.69;2290641;78;20901;-78
2021/07/07 05:41:10;;;;;;;33.70;18.42;;;;;;;26.98;49.87;98781.25;2291173;78;21015;-78
2021/07/07 05:44:11;;;;;;;23.07;17.27;;;;;;;27.07;49.93;98772.70;2290823;78;21464;-78
2021/07/07 05:47:12;;;;;;;46.53;15.10;;;;;;;27.19;49.78;98779.17;2290887;78;20928;-80
2021/07/07 05:50:13;;;;;;;36.42;16.30;;;;;;;27.32;49.54;98785.56;2291357;78;21422;-80
2021/07/07 05:53:14;;;;;;;47.75;17.87;;;;;;;27.31;49.62;98782.49;2291010;78;20955;-78
2021/07/07 05:56:15;;;;;;;37.40;26.40;;;;;;;27.31;49.63;98783.84;2291412;78;21607;-81
2021/07/07 05:59:16;;;;;;;107.95;91.92;;;;;;;27.49;49.36;98783.25;2290812;78;20920;-78
2021/07/07 06:02:17;;;;;;;87.20;74.50;;;;;;;27.55;49.10;98786.44;2291438;78;20940;-81
2021/07/07 06:05:18;;;;;;;61.50;53.05;;;;;;;27.69;48.98;98784.33;2291169;78;20948;-78
2021/07/07 06:08:19;;;;;;;54.45;40.98;;;;;;;27.77;48.48;98783.43;2291675;78;20901;-80
2021/07/07 06:11:19;;;;;;;39.63;26.00;;;;;;;27.86;48.23;98784.22;2291168;78;20908;-80
2021/07/07 06:14:20;;;;;;;37.83;26.45;;;;;;;27.90;48.25;98782.22;2290836;78;21008;-79
2021/07/07 06:17:24;;;;;;;17.62;13.40;;;;;;;28.00;48.21;98785.22;2290892;78;21336;-80
2021/07/07 06:20:25;;;;;;;19.50;17.55;;;;;;;28.01;47.65;98778.42;2288464;78;20938;-81
2021/07/07 06:23:26;;;;;;;18.02;16.12;;;;;;;28.03;47.93;98783.70;2281856;78;20937;-80
2021/07/07 06:26:28;;;;;;;18.00;12.07;;;;;;;28.16;48.06;98780.66;2281537;78;20906;-78
2021/07/07 06:29:29;;;;;;;71.85;62.15;;;;;;;28.26;47.37;98783.20;2281607;78;21370;-79
2021/07/07 06:32:30;;;;;;;96.95;86.70;;;;;;;28.26;47.66;98789.04;2281332;78;20975;-80
2021/07/07 06:35:35;;;;;;;80.00;71.57;;;;;;;28.34;47.68;98787.61;2281114;78;20942;-79
2021/07/07 06:38:34;;;;;;;41.63;33.90;;;;;;;28.50;47.27;98787.05;2281354;78;20945;-81
2021/07/07 06:41:35;;;;;;;32.88;29.57;;;;;;;28.56;46.89;98791.17;2281738;78;20945;-82
2021/07/07 06:44:36;;;;;;;20.25;18.45;;;;;;;28.77;46.93;98795.23;2281408;78;21022;-78
2021/07/07 06:47:37;;;;;;;24.67;18.60;;;;;;;28.84;46.24;98787.68;2281636;78;20886;-80
2021/07/07 06:50:38;;;;;;;15.08;13.58;;;;;;;28.86;46.22;98799.19;2281742;78;21010;-80
2021/07/07 06:53:39;;;;;;;21.30;15.68;;;;;;;28.93;45.67;98795.16;2280888;78;20941;-78
2021/07/07 06:56:40;;;;;;;28.55;15.60;;;;;;;29.00;46.11;98795.14;2281867;78;20949;-79
2021/07/07 06:59:44;;;;;;;17.20;14.78;;;;;;;29.10;46.05;98789.56;2281428;78;20926;-79
2021/07/07 07:02:46;;;;;;;17.50;14.90;;;;;;;29.24;45.93;98793.18;2280731;78;20949;-79
2021/07/07 07:05:47;;;;;;;15.45;13.88;;;;;;;29.34;45.65;98788.92;2281638;78;20937;-80
2021/07/07 07:08:50;;;;;;;14.33;13.03;;;;;;;29.33;45.39;98795.27;2281677;78;20922;-79
2021/07/07 07:11:51;;;;;;;15.20;13.30;;;;;;;29.38;45.42;98795.83;2281420;78;20974;-78
2021/07/07 07:14:53;;;;;;;17.37;12.78;;;;;;;29.40;45.03;98793.42;2281350;78;21029;-79
2021/07/07 07:17:54;;;;;;;17.15;11.95;;;;;;;29.46;45.06;98796.22;2281279;78;21377;-80
2021/07/07 07:20:55;;;;;;;17.23;12.88;;;;;;;29.51;44.74;98796.81;2279538;77;20965;-83
2021/07/07 07:23:56;;;;;;;14.00;11.60;;;;;;;29.55;44.93;98794.30;2280908;78;20918;-78
2021/07/07 07:26:57;;;;;;;108.17;97.35;;;;;;;29.61;44.68;98795.23;2280952;78;20910;-81
2021/07/07 07:29:58;;;;;;;71.28;63.92;;;;;;;29.60;45.28;98796.20;2280579;78;20985;-78
2021/07/07 07:32:59;;;;;;;83.85;75.25;;;;;;;29.84;45.37;98798.20;2280423;78;21001;-79
2021/07/07 07:36:00;;;;;;;102.60;27.17;;;;;;;30.11;44.96;98796.36;2280472;78;20879;-79
2021/07/07 07:39:04;;;;;;;41.83;37.67;;;;;;;30.23;44.36;98799.55;2280483;78;20918;-78
2021/07/07 07:42:04;;;;;;;29.30;26.50;;;;;;;30.24;44.39;98795.89;2280377;78;21354;-79
2021/07/07 07:48:07;;;;;;;14.80;13.32;;;;;;;30.38;44.53;98802.56;2259914;78;20918;-77
2021/07/07 07:51:08;;;;;;;19.90;14.07;;;;;;;30.44;44.53;98801.27;2280851;78;20946;-78
2021/07/07 07:54:09;;;;;;;13.68;12.50;;;;;;;30.61;44.32;98796.08;2281329;78;20883;-78
2021/07/07 07:57:10;;;;;;;16.48;15.18;;;;;;;30.66;44.39;98799.30;2280982;78;21024;-79
2021/07/07 08:00:11;;;;;;;15.23;13.72;;;;;;;30.66;44.82;98797.95;2280720;78;20946;-79
2021/07/07 08:03:12;;;;;;;14.03;12.73;;;;;;;30.70;44.50;98804.36;2280602;78;20970;-78
2021/07/07 08:06:13;;;;;;;15.28;13.70;;;;;;;30.78;44.36;98798.92;2280290;78;21002;-78
2021/07/07 08:09:14;;;;;;;12.93;11.73;;;;;;;30.94;44.11;98800.41;2281218;78;21285;-79
2021/07/07 08:12:15;;;;;;;13.85;12.65;;;;;;;31.01;43.71;98808.42;2280869;78;21333;-79
2021/07/07 08:15:16;;;;;;;15.72;12.98;;;;;;;31.13;43.52;98812.55;2280811;78;21393;-81
2021/07/07 08:18:18;;;;;;;12.15;10.98;;;;;;;31.30;43.08;98810.89;2281543;78;21250;-79
2021/07/07 08:21:21;;;;;;;13.15;11.05;;;;;;;31.66;42.18;98809.50;2280916;78;21010;-80
2021/07/07 08:24:22;;;;;;;14.03;12.78;;;;;;;31.91;41.09;98818.48;2280133;78;21308;-79
2021/07/07 08:27:23;;;;;;;14.63;13.08;;;;;;;32.02;41.83;98814.96;2280413;78;21005;-79
2021/07/07 08:30:24;;;;;;;44.15;14.30;;;;;;;31.98;41.71;98812.50;2281104;78;21279;-80
2021/07/07 08:33:25;;;;;;;21.97;13.28;;;;;;;31.87;41.45;98817.85;2280721;78;20933;-80
2021/07/07 08:36:26;;;;;;;40.03;35.85;;;;;;;31.73;42.01;98819.38;2281062;78;20945;-80
2021/07/07 08:39:27;;;;;;;27.52;23.32;;;;;;;31.58;41.59;98819.15;2281159;78;20918;-78
2021/07/07 08:42:33;;;;;;;16.97;14.87;;;;;;;31.67;41.97;98827.42;2281163;78;20997;-81
2021/07/07 08:45:33;;;;;;;113.97;23.55;;;;;;;31.93;41.32;98825.97;2280430;77;21064;-79
2021/07/07 08:48:33;;;;;;;17.00;14.13;;;;;;;32.03;41.00;98825.64;2280837;78;20962;-79
2021/07/07 08:51:40;;;;;;;21.90;14.03;;;;;;;32.10;41.14;98828.77;2280729;78;21001;-78
2021/07/07 08:54:37;;;;;;;14.90;11.53;;;;;;;32.27;40.86;98838.67;2280536;78;20894;-80
2021/07/07 08:57:44;;;;;;;14.83;12.65;;;;;;;32.48;40.67;98835.29;2281241;78;20902;-80
2021/07/07 09:00:45;;;;;;;21.33;12.00;;;;;;;32.39;40.67;98834.16;2281356;78;21025;-83
2021/07/07 09:03:46;;;;;;;28.90;11.75;;;;;;;32.48;40.42;98830.75;2282024;78;20975;-85
2021/07/07 09:06:47;;;;;;;20.15;11.15;;;;;;;32.74;39.94;98830.05;2281638;78;21615;-79
2021/07/07 09:09:48;;;;;;;20.45;12.40;;;;;;;32.97;39.36;98832.83;2281013;78;20911;-79
2021/07/07 09:12:49;;;;;;;16.85;10.68;;;;;;;32.97;39.26;98826.92;2281198;78;20926;-79
2021/07/07 09:15:51;;;;;;;34.60;31.27;;;;;;;32.94;38.37;98825.30;2280362;78;20997;-80
2021/07/07 09:18:54;;;;;;;66.77;59.98;;;;;;;32.83;38.60;98832.05;2281118;78;20918;-78
2021/07/07 09:21:56;;;;;;;20.32;18.23;;;;;;;32.89;38.49;98830.70;2266865;78;20959;-78
2021/07/07 09:24:56;;;;;;;19.52;17.60;;;;;;;32.89;37.79;98831.56;2249513;79;20964;-79
2021/07/07 09:27:58;;;;;;;21.15;19.23;;;;;;;32.90;38.22;98835.98;2248845;79;20908;-79
2021/07/07 09:31:02;;;;;;;17.12;15.63;;;;;;;33.15;38.34;98839.45;2249779;79;21300;-78
2021/07/07 09:34:05;;;;;;;12.82;10.35;;;;;;;33.30;37.73;98837.38;2249345;79;20992;-80
2021/07/07 09:37:06;;;;;;;12.68;10.98;;;;;;;33.36;37.40;98836.39;2249140;79;20980;-79
2021/07/07 09:40:08;;;;;;;38.33;9.30;;;;;;;33.26;37.63;98834.03;2248863;79;20964;-82
2021/07/07 09:43:09;;;;;;;11.38;7.50;;;;;;;33.24;35.27;98844.12;2249492;79;20999;-81
2021/07/07 09:46:10;;;;;;;7.33;6.75;;;;;;;33.78;35.57;98843.30;2249432;79;21031;-82
2021/07/07 09:49:12;;;;;;;9.40;5.67;;;;;;;34.04;35.04;98835.75;2249152;79;21323;-82
2021/07/07 09:52:13;;;;;;;7.53;5.92;;;;;;;34.12;33.91;98838.17;2249477;79;20984;-81
2021/07/07 09:55:14;;;;;;;7.03;6.20;;;;;;;34.24;33.47;98833.56;2249277;79;20913;-80
2021/07/07 09:58:15;;;;;;;6.70;5.50;;;;;;;34.56;33.48;98840.80;2249492;79;20952;-82
2021/07/07 10:01:15;;;;;;;8.93;5.12;;;;;;;34.92;32.21;98851.70;2250091;79;21119;-80
2021/07/07 10:04:19;;;;;;;10.43;5.45;;;;;;;34.96;31.69;98849.94;2249979;79;20996;-82
2021/07/07 10:07:20;;;;;;;7.30;5.00;;;;;;;34.96;31.18;98847.72;2249617;79;20919;-82
2021/07/07 10:10:21;;;;;;;7.42;5.35;;;;;;;35.23;30.92;98853.40;2250018;79;20943;-81
2021/07/07 10:13:22;;;;;;;6.50;5.40;;;;;;;35.48;30.79;98854.80;2249268;79;21293;-80
2021/07/07 10:16:23;;;;;;;8.38;6.05;;;;;;;35.69;30.83;98850.66;2248460;79;21019;-81
2021/07/07 10:19:24;;;;;;;5.72;4.97;;;;;;;35.82;31.57;98846.34;2249534;79;21300;-80
2021/07/07 10:22:25;;;;;;;5.58;5.05;;;;;;;35.89;30.99;98847.50;2266140;77;21000;-82
2021/07/07 10:25:26;;;;;;;9.33;5.03;;;;;;;35.99;30.15;98849.22;2281718;78;20971;-82
2021/07/07 10:28:27;;;;;;;7.15;6.40;;;;;;;35.99;29.01;98851.08;2281180;77;20974;-80
2021/07/07 10:31:28;;;;;;;17.05;15.55;;;;;;;36.11;27.94;98845.00;2281002;78;21302;-78
2021/07/07 10:34:29;;;;;;;5.30;4.78;;;;;;;36.25;27.28;98845.92;2280366;78;20974;-79
2021/07/07 10:37:30;;;;;;;17.30;10.00;;;;;;;36.40;27.59;98843.16;2280514;77;20914;-78
2021/07/07 10:40:31;;;;;;;4.80;4.00;;;;;;;36.59;27.46;98849.95;2280995;78;21342;-80
2021/07/07 10:43:32;;;;;;;11.03;4.65;;;;;;;36.69;26.21;98842.63;2280306;78;20934;-77
2021/07/07 10:46:33;;;;;;;5.83;4.25;;;;;;;36.86;25.94;98844.26;2279943;77;20942;-80
2021/07/07 10:49:34;;;;;;;6.20;5.42;;;;;;;36.74;24.42;98848.98;2281321;78;20937;-82
2021/07/07 10:52:35;;;;;;;5.78;4.65;;;;;;;36.29;26.26;98844.17;2281646;78;21335;-82
2021/07/07 10:55:39;;;;;;;7.53;5.92;;;;;;;36.32;26.75;98847.95;2281947;77;20895;-80
2021/07/07 10:58:41;;;;;;;4.08;3.60;;;;;;;36.34;27.60;98836.94;2281474;77;21362;-81
2021/07/07 11:01:42;;;;;;;;;;;;;;;36.30;26.96;98839.59;2284674;78;21059;-82
2021/07/07 11:04:43;;;;;;;7.40;4.08;;;;;;;36.29;26.80;98841.45;2281639;78;20076;-81
2021/07/07 11:07:44;;;;;;;7.78;4.17;;;;;;;36.20;27.09;98839.56;2282164;78;20906;-81
2021/07/07 11:10:45;;;;;;;4.67;4.10;;;;;;;36.27;27.12;98836.63;2281165;77;20974;-83
2021/07/07 11:13:47;;;;;;;3.50;3.20;;;;;;;36.36;27.29;98841.73;2280676;78;21665;-82
2021/07/07 11:16:48;;;;;;;9.45;4.47;;;;;;;36.29;26.72;98841.95;2280144;77;21033;-79
2021/07/07 11:19:50;;;;;;;4.92;3.80;;;;;;;36.52;27.21;98834.37;2280872;78;20915;-82
2021/07/07 11:22:52;;;;;;;45.95;28.00;;;;;;;36.51;27.19;98828.08;2262318;77;20948;-79
2021/07/07 11:25:53;;;;;;;9.68;6.95;;;;;;;36.48;26.79;98829.73;2249198;79;21011;-79
2021/07/07 11:28:54;;;;;;;23.25;6.22;;;;;;;36.84;26.63;98827.23;2249017;79;20959;-78
2021/07/07 11:31:55;;;;;;;8.58;4.75;;;;;;;37.17;25.45;98836.19;2249148;79;20916;-79
2021/07/07 11:34:56;;;;;;;13.88;4.95;;;;;;;37.28;24.47;98836.05;2249119;79;21287;-81
2021/07/07 11:37:57;;;;;;;7.45;3.60;;;;;;;37.59;24.40;98837.09;2248890;79;20873;-79
2021/07/07 11:40:59;;;;;;;7.58;3.67;;;;;;;37.77;24.20;98835.28;2249023;79;20975;-80
2021/07/07 11:44:00;;;;;;;9.18;3.83;;;;;;;37.85;23.47;98835.87;2249438;79;20964;-80
2021/07/07 11:47:01;;;;;;;8.00;3.85;;;;;;;37.39;24.27;98841.80;2249195;79;20980;-78
2021/07/07 11:50:02;;;;;;;4.30;3.75;;;;;;;37.05;25.00;98848.77;2249223;79;20996;-77
2021/07/07 11:53:03;;;;;;;12.57;5.20;;;;;;;36.72;25.19;98841.98;2248683;79;21117;-80
2021/07/07 11:56:05;;;;;;;20.12;5.75;;;;;;;36.53;25.31;98840.16;2248981;79;21328;-79
2021/07/07 11:59:07;;;;;;;11.65;4.70;;;;;;;36.39;25.88;98849.59;2249122;79;20964;-78
2021/07/07 12:02:08;;;;;;;11.22;4.60;;;;;;;36.20;26.00;98850.94;2249164;79;21343;-77
2021/07/07 12:05:09;;;;;;;29.65;5.65;;;;;;;36.20;26.00;98850.94;2248557;79;21371;-77
2021/07/07 12:08:10;;;;;;;13.38;4.40;;;;;;;36.26;26.09;98848.50;2248363;79;20904;-79
2021/07/07 12:11:10;;;;;;;4.17;3.87;;;;;;;36.59;26.16;98843.16;2248076;79;20935;-76
2021/07/07 12:14:11;;;;;;;5.03;3.65;;;;;;;36.41;25.91;98846.23;2248239;79;20939;-80
2021/07/07 12:17:12;;;;;;;4.80;3.90;;;;;;;36.29;26.34;98841.45;2247984;79;20912;-76
2021/07/07 12:20:13;;;;;;;7.58;3.72;;;;;;;36.26;26.29;98840.85;2248634;79;21031;-77
2021/07/07 12:23:16;;;;;;;14.68;7.20;;;;;;;36.39;25.61;98850.95;2268993;77;20969;-77
2021/07/07 12:26:17;;;;;;;10.63;4.50;;;;;;;35.94;25.52;98854.72;2280895;77;20953;-77
2021/07/07 12:29:20;;;;;;;4.33;3.92;;;;;;;35.55;25.47;98844.23;2281320;78;20969;-77
2021/07/07 12:32:23;;;;;;;12.73;4.65;;;;;;;35.66;26.35;98846.86;2281261;78;20946;-79
2021/07/07 12:35:27;;;;;;;6.78;4.47;;;;;;;35.86;26.53;98850.00;2281333;77;20952;-82
2021/07/07 12:38:28;;;;;;;8.80;4.40;;;;;;;36.16;25.92;98849.50;2280330;78;20970;-79
2021/07/07 12:41:29;;;;;;;4.25;3.95;;;;;;;36.16;25.79;98849.50;2279958;77;21341;-78
2021/07/07 12:44:30;;;;;;;5.00;4.08;;;;;;;36.30;25.61;98851.32;2280688;77;21334;-78
2021/07/07 12:47:31;;;;;;;4.25;3.95;;;;;;;36.48;25.82;98854.19;2281316;77;20985;-77
2021/07/07 12:50:32;;;;;;;4.70;3.67;;;;;;;36.39;25.59;98849.59;2281279;77;21276;-82
2021/07/07 12:53:33;;;;;;;7.33;3.98;;;;;;;36.63;25.56;98858.17;2280820;78;20969;-79
2021/07/07 12:56:34;;;;;;;8.43;4.05;;;;;;;36.79;24.84;98860.81;2280928;78;21016;-79
2021/07/07 12:59:35;;;;;;;5.83;3.52;;;;;;;36.88;24.35;98862.65;2281465;78;20946;-80
2021/07/07 13:02:36;;;;;;;20.72;13.50;;;;;;;37.02;24.01;98854.01;2281180;78;21255;-80
2021/07/07 13:05:37;;;;;;;7.30;4.65;;;;;;;37.08;24.21;98858.86;2280837;78;20993;-79
2021/07/07 13:08:46;;;;;;;11.33;3.72;;;;;;;36.81;24.42;98861.52;2281747;77;20895;-79
2021/07/07 13:11:46;;;;;;;4.08;3.67;;;;;;;36.48;24.80;98869.14;2281191;77;20914;-78
2021/07/07 13:14:47;;;;;;;5.40;3.95;;;;;;;36.50;24.83;98873.08;2281009;77;20962;-80
2021/07/07 13:17:48;;;;;;;14.18;4.60;;;;;;;36.52;24.69;98867.84;2280064;78;20902;-78
2021/07/07 13:20:49;;;;;;;5.95;3.83;;;;;;;36.50;25.00;98875.80;2279417;78;20918;-80
2021/07/07 13:23:50;;;;;;;4.75;4.05;;;;;;;36.62;24.90;98875.48;2287415;78;20936;-79
2021/07/07 13:26:52;;;;;;;6.00;4.75;;;;;;;36.72;25.12;98863.73;2289538;78;20912;-79
2021/07/07 13:29:53;;;;;;;7.17;4.28;;;;;;;36.99;25.25;98869.27;2289705;78;21288;-78
2021/07/07 13:32:53;;;;;;;10.50;4.50;;;;;;;37.13;24.74;98863.34;2289731;78;20908;-78
2021/07/07 13:35:54;;;;;;;4.62;4.22;;;;;;;37.17;24.66;98867.48;2290014;78;20920;-78
2021/07/07 13:38:55;;;;;;;22.13;5.95;;;;;;;37.42;24.57;98861.05;2290729;78;20931;-77
2021/07/07 13:41:56;;;;;;;5.53;4.08;;;;;;;37.48;24.60;98869.47;2290358;78;20888;-76
2021/07/07 13:44:59;;;;;;;177.43;160.05;;;;;;;37.36;25.20;98867.10;2290673;78;21113;-79
2021/07/07 13:48:00;;;;;;;12.23;10.98;;;;;;;37.23;25.05;98872.36;2290870;78;21000;-78
2021/07/07 13:51:01;;;;;;;9.40;5.50;;;;;;;37.21;25.57;98870.26;2291553;78;21284;-79
2021/07/07 13:54:02;;;;;;;6.03;4.25;;;;;;;37.30;25.56;98868.06;2291516;78;21000;-78
2021/07/07 13:57:02;;;;;;;4.50;4.10;;;;;;;37.44;24.90;98864.48;2291097;78;21348;-79
2021/07/07 14:00:03;;;;;;;7.95;5.55;;;;;;;37.33;24.50;98863.32;2291124;78;21308;-78
2021/07/07 14:03:04;;;;;;;20.32;8.18;;;;;;;36.66;25.32;98867.39;2290612;78;20955;-78
2021/07/07 14:06:05;;;;;;;7.85;4.55;;;;;;;36.33;25.90;98870.55;2290395;78;20897;-80